Вохма

СКИДКИ НА СМАРТФОНЫ!

Карта отелей и гостиниц, располагающихся рядом с аэропортом Вохма :

Вохма Костромская область 58° 55' 1.56" N, 46° 43' 31.8" E
Вохма Костромская область 58° 55' 1.56" N, 46° 43' 31.8" E
Код аэродрома ИКАО
ZAX8
Код аэродрома RU
ЗАЬ8
Координаты
N58.91710° E046.72550°
Превышение над уровнем моря
160
Основная полоса
13/31
Курс магнитный
133/313
Длина основной ВПП
650
Ширина основной ВПП
30
Покрытие основной ВПП
Твёрдое (асфальт)
Освещение ВПП
Нет
Тип: 
Аэродром
Класс аэродрома: 
Принадлежность: 
ГА
Статус: 
Недействующий
Сайт: 
E-mail аэродрома: 
Страна: 
Россия
Регион: 
Костромская область
Город: 
Дополнительная информация: 

Скидки на навигаторы!

Найти трансфер

С помощью этой формы Вы можете найти трансфер из аэропорта Вохма в город, аэропорт или вокзал:

Погода в аэропортах:

Авиационная погода в Кневичи

Регион: 
Погода METAR: 
UHWW 190400Z 18007G12MPS 9999 -SHRA SCT015 BKN040CB 24/22 Q0997 R25L/250060 NOSIG RMK QFE747
Время наблюдения
2022-08-19T04:00:00Z
Температура C
24.0
Точка росы
22.0
Направление ветра
180
Скорость ветра (узлы)
14
Метео видимость
6.21
Облачность
SCT
BKN
Нижняя граница облачности (футы)
1500
4000
Явления погоды
-SHRA
Условия полета
VFR
Аэропорт подробнее: 
SCT – разбросанная отдельная облачность; BKN – значительная (рассеянная, разорванная) облачность;
-SHRA - слабый ливневой дождь;

Авиационная погода в Яссах

Регион: 
Погода METAR: 
LRIA 190400Z 25004KT 230V290 4000 BR NSC 19/19 Q1012
Время наблюдения
2022-08-19T04:00:00Z
Температура C
19.0
Точка росы
19.0
Направление ветра
250
Скорость ветра (узлы)
4
Метео видимость
2.49
Облачность
CLR
Нижняя граница облачности (футы)
Явления погоды
BR
Условия полета
IFR
CLR — нет облаков ниже 3000 м
BR – дымка (видимость от 1 до 9 км);

Авиационная погода в Липецке

Регион: 
Погода METAR: 
UUOL 190400Z 06009MPS 9999 -RA BKN009 16/16 Q1016 R33/290150 NOSIG
Время наблюдения
2022-08-19T04:00:00Z
Температура C
16.0
Точка росы
16.0
Направление ветра
60
Скорость ветра (узлы)
17
Метео видимость
6.21
Облачность
BKN
Нижняя граница облачности (футы)
900
Явления погоды
-RA
Условия полета
IFR
Аэропорт подробнее: 
BKN – значительная (рассеянная, разорванная) облачность;
-RA - слабый дождь;

Авиационная погода в Калуге (Грабцево)

Регион: 
Погода METAR: 
UUBC 190400Z 02004MPS 330V060 9000 -SHRA SCT066CB 16/15 Q1021 R31/290050 NOSIG RMK QFE749/0998
Время наблюдения
2022-08-19T04:00:00Z
Температура C
16.0
Точка росы
15.0
Направление ветра
20
Скорость ветра (узлы)
8
Метео видимость
5.59
Облачность
SCT
Нижняя граница облачности (футы)
6600
Явления погоды
-SHRA
Условия полета
VFR
SCT – разбросанная отдельная облачность;
-SHRA - слабый ливневой дождь;